createdAt,value
2022-09-26T00:00:35.890Z,2.10
2022-09-26T00:04:44.926Z,1.73
2022-09-26T00:08:55.986Z,2.20
2022-09-26T00:13:05.125Z,2.20
2022-09-26T00:17:14.148Z,2.17
2022-09-26T00:21:23.746Z,1.63
2022-09-26T00:25:34.244Z,1.90
2022-09-26T00:29:43.127Z,2.30
2022-09-26T00:33:52.265Z,2.10
2022-09-26T00:38:01.365Z,1.70
2022-09-26T00:42:15.845Z,2.40
2022-09-26T00:46:31.826Z,2.20
2022-09-26T00:50:43.724Z,1.90
2022-09-26T00:54:56.185Z,2.07
2022-09-26T00:59:14.065Z,2.20
2022-09-26T01:03:24.308Z,2.40
2022-09-26T01:07:34.945Z,2.37
2022-09-26T01:11:45.084Z,1.90
2022-09-26T01:15:55.646Z,2.10
2022-09-26T01:20:16.132Z,2.30
2022-09-26T01:24:44.508Z,2.50
2022-09-26T01:29:19.483Z,2.40
2022-09-26T01:33:58.946Z,2.63
2022-09-26T01:38:17.486Z,2.43
2022-09-26T01:42:36.317Z,2.57
2022-09-26T01:46:51.727Z,2.67
2022-09-26T01:51:08.148Z,2.70
2022-09-26T01:55:20.887Z,2.50
2022-09-26T01:59:35.686Z,2.97
2022-09-26T02:03:48.769Z,2.33
2022-09-26T02:08:04.345Z,2.60
2022-09-26T02:12:18.109Z,2.17
2022-09-26T02:16:31.990Z,2.50
2022-09-26T02:20:43.388Z,2.23
2022-09-26T02:24:55.147Z,2.17
2022-09-26T02:29:04.933Z,2.53
2022-09-26T02:33:14.493Z,2.37
2022-09-26T02:37:24.211Z,2.03
2022-09-26T02:41:44.946Z,1.83
2022-09-26T02:46:03.230Z,2.17
2022-09-26T02:50:25.708Z,1.83
2022-09-26T02:54:45.246Z,1.60
2022-09-26T02:59:02.287Z,1.67
2022-09-26T03:03:20.396Z,1.50
2022-09-26T03:07:35.067Z,1.40
2022-09-26T03:11:45.206Z,1.50
2022-09-26T03:15:58.005Z,1.40
2022-09-26T03:20:11.588Z,1.20
2022-09-26T03:24:20.911Z,1.40
2022-09-26T03:28:35.366Z,1.37
2022-09-26T03:32:48.267Z,1.73
2022-09-26T03:36:57.324Z,1.50
2022-09-26T03:41:07.625Z,1.27
2022-09-26T03:45:16.846Z,1.40
2022-09-26T03:49:27.528Z,1.43
2022-09-26T03:53:38.598Z,1.33
2022-09-26T03:57:47.825Z,1.17
2022-09-26T04:01:57.058Z,1.50
2022-09-26T04:06:09.206Z,1.10
2022-09-26T04:10:19.346Z,1.10
2022-09-26T04:14:29.086Z,1.47
2022-09-26T04:18:38.965Z,1.27
2022-09-26T04:22:49.826Z,0.97
2022-09-26T04:26:59.118Z,1.20
2022-09-26T04:31:10.959Z,1.20
2022-09-26T04:35:20.238Z,1.70
2022-09-26T04:39:31.166Z,1.10
2022-09-26T04:43:41.825Z,1.03
2022-09-26T04:47:50.986Z,1.23
2022-09-26T04:51:59.964Z,1.50
2022-09-26T04:56:13.305Z,0.97
2022-09-26T05:00:22.567Z,1.20
2022-09-26T05:04:34.225Z,1.20
2022-09-26T05:08:44.933Z,1.27
2022-09-26T05:12:55.824Z,1.47
2022-09-26T05:17:05.871Z,1.33
2022-09-26T05:21:15.186Z,1.67
2022-09-26T05:25:41.320Z,1.60
2022-09-26T05:29:52.586Z,1.40
2022-09-26T05:34:02.107Z,1.40
2022-09-26T05:38:11.525Z,1.37
2022-09-26T05:42:20.565Z,1.40
2022-09-26T05:46:32.488Z,1.60
2022-09-26T05:50:43.588Z,1.50
2022-09-26T05:54:53.006Z,1.10
2022-09-26T05:59:02.083Z,1.03
2022-09-26T06:03:12.926Z,1.60
2022-09-26T06:07:22.224Z,1.30
2022-09-26T06:11:32.085Z,1.80
2022-09-26T06:15:43.548Z,1.57
2022-09-26T06:19:55.130Z,1.60
2022-09-26T06:24:04.548Z,1.00
2022-09-26T06:28:13.725Z,1.13
2022-09-26T06:32:22.724Z,1.00
2022-09-26T06:36:33.198Z,1.00
2022-09-26T06:40:42.375Z,1.77
2022-09-26T06:44:52.547Z,1.27
2022-09-26T06:49:01.646Z,1.63
2022-09-26T06:53:13.187Z,1.10
2022-09-26T06:57:23.272Z,1.00
2022-09-26T07:01:32.922Z,1.50
2022-09-26T07:05:42.780Z,1.13
2022-09-26T07:10:04.761Z,1.20
2022-09-26T07:14:17.398Z,1.53
2022-09-26T07:18:26.932Z,1.60
2022-09-26T07:22:36.433Z,1.37
2022-09-26T07:26:47.753Z,1.70
2022-09-26T07:30:59.068Z,1.40
2022-09-26T07:35:08.754Z,1.53
2022-09-26T07:39:17.892Z,1.43
2022-09-26T07:43:53.567Z,1.80
2022-09-26T07:48:15.153Z,1.53
2022-09-26T07:52:24.612Z,1.60
2022-09-26T07:56:34.316Z,1.60
2022-09-26T08:00:46.034Z,2.13
2022-09-26T08:05:00.875Z,2.10
2022-09-26T08:09:10.413Z,1.97
2022-09-26T08:13:19.913Z,1.40
2022-09-26T08:17:34.493Z,1.70
2022-09-26T08:21:44.055Z,1.80
2022-09-26T08:25:53.672Z,1.70
2022-09-26T08:30:05.392Z,1.70
2022-09-26T08:34:19.229Z,1.70
2022-09-26T08:38:33.133Z,2.27
2022-09-26T08:42:53.992Z,1.70
2022-09-26T08:47:28.859Z,2.23
2022-09-26T08:51:43.314Z,2.60
2022-09-26T08:55:55.453Z,2.33
2022-09-26T09:00:19.359Z,2.37
2022-09-26T09:04:38.814Z,2.70
2022-09-26T09:08:52.673Z,3.20
2022-09-26T09:13:12.889Z,3.10
2022-09-26T09:17:29.992Z,3.20
2022-09-26T09:21:49.374Z,3.30
2022-09-26T09:30:50.702Z,3.30
2022-09-26T09:35:00.414Z,3.03
2022-09-26T09:39:13.754Z,3.20
2022-09-26T09:43:41.775Z,2.53
2022-09-26T09:47:50.852Z,2.53
2022-09-26T09:52:30.133Z,2.87
2022-09-26T09:56:52.313Z,3.07
2022-09-26T10:01:12.273Z,2.57
2022-09-26T10:05:30.234Z,2.93
2022-09-26T10:09:42.813Z,2.77
2022-09-26T10:13:56.493Z,2.10
2022-09-26T10:18:27.449Z,3.03
2022-09-26T10:23:06.353Z,2.30
2022-09-26T10:27:22.934Z,2.30
2022-09-26T10:31:42.369Z,1.90
2022-09-26T10:36:00.592Z,2.50
2022-09-26T10:40:42.869Z,3.10
2022-09-26T10:44:52.313Z,3.77
2022-09-26T10:49:04.518Z,3.77
2022-09-26T10:53:23.374Z,3.73
2022-09-26T10:57:45.734Z,3.33
2022-09-26T11:02:01.181Z,4.97
2022-09-26T11:06:25.732Z,4.17
2022-09-26T11:10:42.393Z,4.70
2022-09-26T11:14:57.313Z,4.23
2022-09-26T11:19:13.998Z,3.13
2022-09-26T11:23:37.154Z,3.27
2022-09-26T11:27:51.373Z,2.03
2022-09-26T11:32:00.645Z,1.97
2022-09-26T11:36:23.533Z,1.90
2022-09-26T11:41:01.561Z,2.10
2022-09-26T11:45:22.572Z,1.90
2022-09-26T11:49:49.354Z,1.73
2022-09-26T11:54:19.257Z,1.87
2022-09-26T11:58:38.954Z,1.90
2022-09-26T12:03:07.694Z,2.30
2022-09-26T12:07:23.035Z,2.13
2022-09-26T12:11:38.653Z,1.90
2022-09-26T12:15:56.634Z,1.80
2022-09-26T12:20:20.753Z,1.43
2022-09-26T12:24:36.132Z,1.70
2022-09-26T12:29:17.652Z,1.60
2022-09-26T12:33:47.694Z,2.40
2022-09-26T12:38:34.013Z,2.00
2022-09-26T12:43:18.052Z,2.47
2022-09-26T12:48:08.012Z,2.20
2022-09-26T12:52:29.291Z,2.40
2022-09-26T12:56:49.673Z,2.57
2022-09-26T13:01:21.421Z,2.00
2022-09-26T13:06:08.576Z,2.97
2022-09-26T13:10:51.932Z,2.90
2022-09-26T13:15:19.653Z,2.73
2022-09-26T13:19:36.173Z,3.30
2022-09-26T13:24:03.713Z,2.90
2022-09-26T13:28:20.894Z,3.03
2022-09-26T13:32:41.874Z,2.93
2022-09-26T13:36:52.934Z,2.87
2022-09-26T13:41:14.254Z,3.47
2022-09-26T13:45:32.954Z,3.33
2022-09-26T13:49:55.933Z,3.50
2022-09-26T13:54:22.814Z,3.63
2022-09-26T13:58:44.793Z,3.63
2022-09-26T14:03:28.356Z,3.57
2022-09-26T14:08:14.554Z,4.30
2022-09-26T14:12:35.734Z,4.40
2022-09-26T14:16:45.332Z,3.97
2022-09-26T14:21:33.901Z,4.33
2022-09-26T14:26:10.714Z,4.30
2022-09-26T14:30:30.814Z,4.20
2022-09-26T14:34:49.074Z,4.20
2022-09-26T14:39:02.074Z,4.23
2022-09-26T14:43:15.574Z,4.67
2022-09-26T14:47:32.257Z,3.53
2022-09-26T14:51:54.152Z,3.63
2022-09-26T14:56:06.953Z,3.47
2022-09-26T15:00:36.173Z,3.67
2022-09-26T15:04:49.172Z,4.43
2022-09-26T15:09:00.835Z,4.00
2022-09-26T15:13:25.934Z,4.70
2022-09-26T15:17:42.412Z,3.67
2022-09-26T15:22:01.815Z,4.67
2022-09-26T15:26:19.013Z,4.33
2022-09-26T15:30:37.702Z,3.97
2022-09-26T15:34:51.272Z,4.03
2022-09-26T15:39:08.716Z,4.23
2022-09-26T15:43:28.394Z,4.33
2022-09-26T15:47:43.437Z,4.03
2022-09-26T15:51:56.034Z,4.30
2022-09-26T15:56:11.354Z,3.47
2022-09-26T16:00:49.872Z,3.50
2022-09-26T16:09:37.521Z,4.23
2022-09-26T16:13:52.239Z,3.67
2022-09-26T16:18:02.614Z,3.30
2022-09-26T16:22:45.137Z,2.90
2022-09-26T16:26:56.274Z,3.50
2022-09-26T16:31:23.611Z,3.00
2022-09-26T16:35:34.795Z,2.67
2022-09-26T16:39:44.472Z,3.07
2022-09-26T16:44:07.890Z,3.17
2022-09-26T16:48:55.114Z,3.30
2022-09-26T16:53:07.114Z,2.87
2022-09-26T16:57:20.632Z,3.87
2022-09-26T17:01:47.281Z,3.40
2022-09-26T17:06:00.855Z,3.00
2022-09-26T17:10:15.473Z,3.17
2022-09-26T17:14:29.836Z,3.77
2022-09-26T17:18:43.692Z,3.17
2022-09-26T17:22:55.194Z,3.30
2022-09-26T17:27:07.775Z,3.27
2022-09-26T17:31:20.508Z,3.73
2022-09-26T17:35:36.395Z,3.40
2022-09-26T17:39:47.352Z,3.73
2022-09-26T17:44:00.517Z,3.57
2022-09-26T17:48:15.713Z,3.43
2022-09-26T17:52:29.334Z,3.53
2022-09-26T17:56:40.013Z,3.83
2022-09-26T18:00:51.855Z,3.73
2022-09-26T18:05:04.834Z,3.50
2022-09-26T18:09:17.092Z,3.30
2022-09-26T18:13:34.393Z,3.70
2022-09-26T18:17:43.695Z,2.97
2022-09-26T18:21:57.014Z,3.90
2022-09-26T18:26:06.713Z,2.90
2022-09-26T18:30:19.033Z,3.67
2022-09-26T18:34:28.355Z,3.03
2022-09-26T18:38:37.493Z,3.10
2022-09-26T18:42:47.009Z,3.80
2022-09-26T18:47:01.677Z,4.00
2022-09-26T18:51:12.546Z,2.93
2022-09-26T18:55:40.156Z,3.20
2022-09-26T18:59:49.493Z,3.50
2022-09-26T19:04:05.387Z,3.13
2022-09-26T19:08:29.433Z,3.10
2022-09-26T19:12:40.048Z,4.00
2022-09-26T19:16:50.645Z,3.07
2022-09-26T19:21:01.768Z,3.20
2022-09-26T19:25:12.507Z,3.50
2022-09-26T19:29:29.028Z,3.27
2022-09-26T19:33:41.528Z,3.10
2022-09-26T19:37:52.111Z,3.53
2022-09-26T19:42:01.986Z,3.20
2022-09-26T19:46:16.108Z,3.20
2022-09-26T19:50:27.447Z,2.70
2022-09-26T19:54:38.566Z,2.63
2022-09-26T19:58:50.947Z,2.87
2022-09-26T20:03:00.435Z,2.60
2022-09-26T20:07:13.676Z,2.63
2022-09-26T20:11:24.588Z,2.80
2022-09-26T20:15:46.166Z,2.87
2022-09-26T20:20:03.606Z,2.30
2022-09-26T20:24:19.407Z,2.53
2022-09-26T20:28:30.748Z,2.27
2022-09-26T20:32:42.794Z,2.20
2022-09-26T20:37:05.772Z,2.60
2022-09-26T20:41:26.028Z,2.30
2022-09-26T20:45:43.575Z,2.13
2022-09-26T20:50:01.586Z,2.40
2022-09-26T20:54:16.626Z,2.40
2022-09-26T20:58:26.088Z,3.10
2022-09-26T21:02:42.248Z,2.13
2022-09-26T21:06:52.809Z,2.20
2022-09-26T21:11:02.388Z,2.30
2022-09-26T21:15:14.550Z,2.70
2022-09-26T21:19:30.887Z,2.63
2022-09-26T21:23:44.809Z,2.33
2022-09-26T21:27:57.982Z,2.27
2022-09-26T21:32:09.706Z,2.50
2022-09-26T21:36:24.088Z,2.67
2022-09-26T21:40:38.911Z,2.70
2022-09-26T21:44:53.426Z,2.13
2022-09-26T21:49:02.728Z,2.50
2022-09-26T21:53:20.166Z,2.53
2022-09-26T21:57:32.386Z,2.27
2022-09-26T22:01:41.742Z,2.67
2022-09-26T22:05:50.965Z,2.73
2022-09-26T22:10:01.590Z,2.20
2022-09-26T22:14:10.748Z,2.60
2022-09-26T22:18:19.824Z,2.57
2022-09-26T22:22:29.145Z,3.10
2022-09-26T22:26:40.169Z,2.73
2022-09-26T22:30:49.331Z,2.87
2022-09-26T22:34:58.646Z,2.80
2022-09-26T22:39:08.042Z,2.50
2022-09-26T22:43:18.787Z,2.90
2022-09-26T22:47:28.004Z,2.17
2022-09-26T22:51:37.428Z,2.80
2022-09-26T22:55:55.208Z,2.67
2022-09-26T23:00:06.905Z,2.13
2022-09-26T23:04:16.150Z,2.10
2022-09-26T23:08:25.467Z,2.73
2022-09-26T23:12:34.887Z,2.90
2022-09-26T23:16:45.556Z,2.73
2022-09-26T23:20:54.687Z,2.77
2022-09-26T23:25:03.827Z,3.00
2022-09-26T23:29:13.135Z,2.77
2022-09-26T23:33:23.807Z,2.53
2022-09-26T23:37:33.011Z,2.73
2022-09-26T23:41:42.265Z,2.80
2022-09-26T23:45:51.560Z,3.23
2022-09-26T23:50:02.500Z,2.43
2022-09-26T23:54:12.667Z,3.13
2022-09-26T23:58:21.784Z,3.23
